sensor_id;sensor_type;location;lat;lon;timestamp;P1;durP1;ratioP1;P2;durP2;ratioP2
37449;SDS011;23309;52.582;13.406;2023-07-24T00:01:52;4.37;;;3.70;;
37449;SDS011;23309;52.582;13.406;2023-07-24T00:04:17;4.37;;;3.60;;
37449;SDS011;23309;52.582;13.406;2023-07-24T00:06:43;4.47;;;3.10;;
37449;SDS011;23309;52.582;13.406;2023-07-24T00:09:08;4.80;;;3.50;;
37449;SDS011;23309;52.582;13.406;2023-07-24T00:11:34;4.33;;;3.07;;
37449;SDS011;23309;52.582;13.406;2023-07-24T00:14:00;7.23;;;3.50;;
37449;SDS011;23309;52.582;13.406;2023-07-24T00:16:25;5.47;;;3.73;;
37449;SDS011;23309;52.582;13.406;2023-07-24T00:18:51;5.20;;;3.30;;
37449;SDS011;23309;52.582;13.406;2023-07-24T00:21:17;6.10;;;3.50;;
37449;SDS011;23309;52.582;13.406;2023-07-24T00:23:43;8.70;;;3.20;;
37449;SDS011;23309;52.582;13.406;2023-07-24T00:26:08;4.83;;;3.40;;
37449;SDS011;23309;52.582;13.406;2023-07-24T00:28:34;3.37;;;2.63;;
37449;SDS011;23309;52.582;13.406;2023-07-24T00:31:00;4.00;;;2.83;;
37449;SDS011;23309;52.582;13.406;2023-07-24T00:33:26;4.60;;;2.60;;
37449;SDS011;23309;52.582;13.406;2023-07-24T00:35:55;5.20;;;2.77;;
37449;SDS011;23309;52.582;13.406;2023-07-24T00:38:22;4.20;;;3.30;;
37449;SDS011;23309;52.582;13.406;2023-07-24T00:40:48;4.53;;;3.03;;
37449;SDS011;23309;52.582;13.406;2023-07-24T00:43:13;5.20;;;3.00;;
37449;SDS011;23309;52.582;13.406;2023-07-24T00:45:39;4.90;;;3.53;;
37449;SDS011;23309;52.582;13.406;2023-07-24T00:48:05;3.00;;;2.70;;
37449;SDS011;23309;52.582;13.406;2023-07-24T00:50:30;4.23;;;3.13;;
37449;SDS011;23309;52.582;13.406;2023-07-24T00:52:56;4.20;;;2.50;;
37449;SDS011;23309;52.582;13.406;2023-07-24T00:55:22;3.70;;;3.00;;
37449;SDS011;23309;52.582;13.406;2023-07-24T00:57:48;4.40;;;3.23;;
37449;SDS011;23309;52.582;13.406;2023-07-24T01:00:13;6.03;;;2.90;;
37449;SDS011;23309;52.582;13.406;2023-07-24T01:02:39;3.77;;;3.00;;
37449;SDS011;23309;52.582;13.406;2023-07-24T01:05:04;7.77;;;2.90;;
37449;SDS011;23309;52.582;13.406;2023-07-24T01:07:30;3.60;;;2.70;;
37449;SDS011;23309;52.582;13.406;2023-07-24T01:09:56;3.23;;;2.63;;
37449;SDS011;23309;52.582;13.406;2023-07-24T01:12:35;4.20;;;3.20;;
37449;SDS011;23309;52.582;13.406;2023-07-24T01:17:42;3.50;;;2.83;;
37449;SDS011;23309;52.582;13.406;2023-07-24T01:20:11;3.77;;;2.80;;
37449;SDS011;23309;52.582;13.406;2023-07-24T01:22:39;3.70;;;2.70;;
37449;SDS011;23309;52.582;13.406;2023-07-24T01:25:26;8.23;;;2.80;;
37449;SDS011;23309;52.582;13.406;2023-07-24T01:27:54;3.57;;;2.77;;
37449;SDS011;23309;52.582;13.406;2023-07-24T01:30:21;5.30;;;2.80;;
37449;SDS011;23309;52.582;13.406;2023-07-24T01:32:47;5.93;;;3.10;;
37449;SDS011;23309;52.582;13.406;2023-07-24T01:35:12;6.33;;;2.63;;
37449;SDS011;23309;52.582;13.406;2023-07-24T01:37:38;4.37;;;2.87;;
37449;SDS011;23309;52.582;13.406;2023-07-24T01:40:06;6.83;;;3.10;;
37449;SDS011;23309;52.582;13.406;2023-07-24T01:42:34;6.37;;;3.10;;
37449;SDS011;23309;52.582;13.406;2023-07-24T01:45:01;2.97;;;2.50;;
37449;SDS011;23309;52.582;13.406;2023-07-24T01:47:28;4.70;;;2.67;;
37449;SDS011;23309;52.582;13.406;2023-07-24T01:49:54;4.80;;;3.20;;
37449;SDS011;23309;52.582;13.406;2023-07-24T01:52:20;4.13;;;2.73;;
37449;SDS011;23309;52.582;13.406;2023-07-24T01:54:46;4.10;;;2.80;;
37449;SDS011;23309;52.582;13.406;2023-07-24T01:57:11;7.40;;;3.17;;
37449;SDS011;23309;52.582;13.406;2023-07-24T01:59:37;3.77;;;2.70;;
37449;SDS011;23309;52.582;13.406;2023-07-24T02:02:02;5.20;;;2.93;;
37449;SDS011;23309;52.582;13.406;2023-07-24T02:04:28;9.60;;;2.90;;
37449;SDS011;23309;52.582;13.406;2023-07-24T02:06:54;3.93;;;2.80;;
37449;SDS011;23309;52.582;13.406;2023-07-24T02:09:19;3.33;;;2.50;;
37449;SDS011;23309;52.582;13.406;2023-07-24T02:11:45;5.23;;;2.70;;
37449;SDS011;23309;52.582;13.406;2023-07-24T02:14:11;6.20;;;2.43;;
37449;SDS011;23309;52.582;13.406;2023-07-24T02:16:38;5.87;;;3.00;;
37449;SDS011;23309;52.582;13.406;2023-07-24T02:19:03;3.93;;;2.67;;
37449;SDS011;23309;52.582;13.406;2023-07-24T02:21:29;5.93;;;2.80;;
37449;SDS011;23309;52.582;13.406;2023-07-24T02:23:54;3.20;;;2.83;;
37449;SDS011;23309;52.582;13.406;2023-07-24T02:26:20;3.73;;;2.80;;
37449;SDS011;23309;52.582;13.406;2023-07-24T02:28:47;3.77;;;2.50;;
37449;SDS011;23309;52.582;13.406;2023-07-24T02:31:12;3.23;;;2.60;;
37449;SDS011;23309;52.582;13.406;2023-07-24T02:33:38;3.20;;;2.40;;
37449;SDS011;23309;52.582;13.406;2023-07-24T02:36:04;3.70;;;2.83;;
37449;SDS011;23309;52.582;13.406;2023-07-24T02:38:29;3.47;;;2.47;;
37449;SDS011;23309;52.582;13.406;2023-07-24T02:40:55;5.43;;;2.60;;
37449;SDS011;23309;52.582;13.406;2023-07-24T02:43:20;3.50;;;2.70;;
37449;SDS011;23309;52.582;13.406;2023-07-24T02:45:46;4.53;;;3.20;;
37449;SDS011;23309;52.582;13.406;2023-07-24T02:48:11;4.13;;;2.70;;
37449;SDS011;23309;52.582;13.406;2023-07-24T02:50:37;3.03;;;2.60;;
37449;SDS011;23309;52.582;13.406;2023-07-24T02:53:02;5.80;;;2.87;;
37449;SDS011;23309;52.582;13.406;2023-07-24T02:55:29;4.67;;;3.20;;
37449;SDS011;23309;52.582;13.406;2023-07-24T02:57:54;5.10;;;2.87;;
37449;SDS011;23309;52.582;13.406;2023-07-24T03:00:20;4.30;;;2.87;;
37449;SDS011;23309;52.582;13.406;2023-07-24T03:02:45;3.63;;;2.60;;
37449;SDS011;23309;52.582;13.406;2023-07-24T03:05:11;5.57;;;2.57;;
37449;SDS011;23309;52.582;13.406;2023-07-24T03:07:36;3.70;;;2.70;;
37449;SDS011;23309;52.582;13.406;2023-07-24T03:10:02;3.67;;;2.80;;
37449;SDS011;23309;52.582;13.406;2023-07-24T03:12:28;4.03;;;2.67;;
37449;SDS011;23309;52.582;13.406;2023-07-24T03:14:53;3.17;;;2.87;;
37449;SDS011;23309;52.582;13.406;2023-07-24T03:17:19;4.23;;;2.87;;
37449;SDS011;23309;52.582;13.406;2023-07-24T03:19:44;3.60;;;2.87;;
37449;SDS011;23309;52.582;13.406;2023-07-24T03:22:10;4.27;;;2.70;;
37449;SDS011;23309;52.582;13.406;2023-07-24T03:24:36;2.80;;;2.37;;
37449;SDS011;23309;52.582;13.406;2023-07-24T03:27:01;2.90;;;2.53;;
37449;SDS011;23309;52.582;13.406;2023-07-24T03:29:27;3.67;;;2.73;;
37449;SDS011;23309;52.582;13.406;2023-07-24T03:31:53;4.23;;;2.90;;
37449;SDS011;23309;52.582;13.406;2023-07-24T03:34:18;4.67;;;2.93;;
37449;SDS011;23309;52.582;13.406;2023-07-24T03:36:44;3.50;;;2.60;;
37449;SDS011;23309;52.582;13.406;2023-07-24T03:39:10;4.30;;;2.40;;
37449;SDS011;23309;52.582;13.406;2023-07-24T03:41:36;5.00;;;2.30;;
37449;SDS011;23309;52.582;13.406;2023-07-24T03:44:03;4.73;;;2.53;;
37449;SDS011;23309;52.582;13.406;2023-07-24T03:46:29;4.40;;;2.30;;
37449;SDS011;23309;52.582;13.406;2023-07-24T03:48:57;2.77;;;2.23;;
37449;SDS011;23309;52.582;13.406;2023-07-24T03:51:22;4.00;;;2.60;;
37449;SDS011;23309;52.582;13.406;2023-07-24T03:53:49;4.33;;;2.60;;
37449;SDS011;23309;52.582;13.406;2023-07-24T03:56:14;4.13;;;2.53;;
37449;SDS011;23309;52.582;13.406;2023-07-24T03:58:40;5.57;;;2.27;;
37449;SDS011;23309;52.582;13.406;2023-07-24T04:01:07;3.60;;;2.10;;
37449;SDS011;23309;52.582;13.406;2023-07-24T04:03:33;3.40;;;2.50;;
37449;SDS011;23309;52.582;13.406;2023-07-24T04:06:01;3.60;;;2.20;;
37449;SDS011;23309;52.582;13.406;2023-07-24T04:08:26;2.60;;;1.80;;
37449;SDS011;23309;52.582;13.406;2023-07-24T04:10:52;3.60;;;2.33;;
37449;SDS011;23309;52.582;13.406;2023-07-24T04:13:18;3.20;;;2.20;;
37449;SDS011;23309;52.582;13.406;2023-07-24T04:15:43;4.20;;;2.47;;
37449;SDS011;23309;52.582;13.406;2023-07-24T04:18:09;2.40;;;2.10;;
37449;SDS011;23309;52.582;13.406;2023-07-24T04:20:35;2.80;;;2.37;;
37449;SDS011;23309;52.582;13.406;2023-07-24T04:23:01;2.40;;;2.20;;
37449;SDS011;23309;52.582;13.406;2023-07-24T04:25:26;5.83;;;2.30;;
37449;SDS011;23309;52.582;13.406;2023-07-24T04:27:52;2.80;;;2.10;;
37449;SDS011;23309;52.582;13.406;2023-07-24T04:30:17;3.20;;;2.00;;
37449;SDS011;23309;52.582;13.406;2023-07-24T04:32:43;3.27;;;2.40;;
37449;SDS011;23309;52.582;13.406;2023-07-24T04:35:08;2.50;;;2.30;;
37449;SDS011;23309;52.582;13.406;2023-07-24T04:37:34;2.80;;;2.30;;
37449;SDS011;23309;52.582;13.406;2023-07-24T04:40:00;3.83;;;1.87;;
37449;SDS011;23309;52.582;13.406;2023-07-24T04:42:25;2.43;;;2.10;;
37449;SDS011;23309;52.582;13.406;2023-07-24T04:44:51;2.10;;;1.90;;
37449;SDS011;23309;52.582;13.406;2023-07-24T04:47:16;3.07;;;2.10;;
37449;SDS011;23309;52.582;13.406;2023-07-24T04:49:42;4.23;;;2.40;;
37449;SDS011;23309;52.582;13.406;2023-07-24T04:52:07;2.63;;;2.00;;
37449;SDS011;23309;52.582;13.406;2023-07-24T04:54:33;2.47;;;2.10;;
37449;SDS011;23309;52.582;13.406;2023-07-24T04:56:58;2.90;;;2.00;;
37449;SDS011;23309;52.582;13.406;2023-07-24T04:59:24;3.83;;;1.77;;
37449;SDS011;23309;52.582;13.406;2023-07-24T05:01:49;2.47;;;1.73;;
37449;SDS011;23309;52.582;13.406;2023-07-24T05:04:15;3.80;;;2.30;;
37449;SDS011;23309;52.582;13.406;2023-07-24T05:06:42;2.60;;;1.93;;
37449;SDS011;23309;52.582;13.406;2023-07-24T05:09:07;3.00;;;2.13;;
37449;SDS011;23309;52.582;13.406;2023-07-24T05:11:33;2.67;;;2.00;;
37449;SDS011;23309;52.582;13.406;2023-07-24T05:13:59;3.13;;;2.10;;
37449;SDS011;23309;52.582;13.406;2023-07-24T05:16:24;2.63;;;2.03;;
37449;SDS011;23309;52.582;13.406;2023-07-24T05:18:50;2.07;;;1.87;;
37449;SDS011;23309;52.582;13.406;2023-07-24T05:21:15;2.93;;;2.30;;
37449;SDS011;23309;52.582;13.406;2023-07-24T05:23:41;3.03;;;2.50;;
37449;SDS011;23309;52.582;13.406;2023-07-24T05:26:06;2.53;;;2.20;;
37449;SDS011;23309;52.582;13.406;2023-07-24T05:28:32;2.90;;;2.40;;
37449;SDS011;23309;52.582;13.406;2023-07-24T05:31:01;4.53;;;2.00;;
37449;SDS011;23309;52.582;13.406;2023-07-24T05:33:27;4.50;;;1.97;;
37449;SDS011;23309;52.582;13.406;2023-07-24T05:36:00;2.90;;;2.03;;
37449;SDS011;23309;52.582;13.406;2023-07-24T05:38:26;2.50;;;2.10;;
37449;SDS011;23309;52.582;13.406;2023-07-24T05:40:56;2.37;;;1.87;;
37449;SDS011;23309;52.582;13.406;2023-07-24T05:43:22;4.80;;;1.80;;
37449;SDS011;23309;52.582;13.406;2023-07-24T05:45:50;2.83;;;2.10;;
37449;SDS011;23309;52.582;13.406;2023-07-24T05:48:16;3.00;;;2.10;;
37449;SDS011;23309;52.582;13.406;2023-07-24T05:50:42;2.50;;;1.90;;
37449;SDS011;23309;52.582;13.406;2023-07-24T05:53:07;4.30;;;1.83;;
37449;SDS011;23309;52.582;13.406;2023-07-24T05:55:33;2.87;;;2.17;;
37449;SDS011;23309;52.582;13.406;2023-07-24T05:57:58;4.13;;;1.90;;
37449;SDS011;23309;52.582;13.406;2023-07-24T06:00:24;3.03;;;1.90;;
37449;SDS011;23309;52.582;13.406;2023-07-24T06:02:49;2.70;;;1.70;;
37449;SDS011;23309;52.582;13.406;2023-07-24T06:05:15;2.87;;;1.90;;
37449;SDS011;23309;52.582;13.406;2023-07-24T06:07:40;2.03;;;1.80;;
37449;SDS011;23309;52.582;13.406;2023-07-24T06:10:06;3.20;;;1.83;;
37449;SDS011;23309;52.582;13.406;2023-07-24T06:12:32;2.00;;;1.70;;
37449;SDS011;23309;52.582;13.406;2023-07-24T06:14:57;2.13;;;1.70;;
37449;SDS011;23309;52.582;13.406;2023-07-24T06:17:23;2.60;;;2.00;;
37449;SDS011;23309;52.582;13.406;2023-07-24T06:19:48;5.27;;;2.30;;
37449;SDS011;23309;52.582;13.406;2023-07-24T06:22:14;5.23;;;1.80;;
37449;SDS011;23309;52.582;13.406;2023-07-24T06:24:39;3.50;;;2.00;;
37449;SDS011;23309;52.582;13.406;2023-07-24T06:27:05;2.90;;;1.70;;
37449;SDS011;23309;52.582;13.406;2023-07-24T06:29:33;2.10;;;1.80;;
37449;SDS011;23309;52.582;13.406;2023-07-24T06:31:59;2.67;;;1.90;;
37449;SDS011;23309;52.582;13.406;2023-07-24T06:34:24;2.10;;;1.90;;
37449;SDS011;23309;52.582;13.406;2023-07-24T06:36:50;2.20;;;1.93;;
37449;SDS011;23309;52.582;13.406;2023-07-24T06:39:16;2.27;;;2.07;;
37449;SDS011;23309;52.582;13.406;2023-07-24T06:41:41;2.20;;;1.93;;
37449;SDS011;23309;52.582;13.406;2023-07-24T06:44:07;2.60;;;1.90;;
37449;SDS011;23309;52.582;13.406;2023-07-24T06:46:32;6.33;;;2.07;;
37449;SDS011;23309;52.582;13.406;2023-07-24T06:48:58;2.40;;;2.03;;
37449;SDS011;23309;52.582;13.406;2023-07-24T06:51:23;3.70;;;2.23;;
37449;SDS011;23309;52.582;13.406;2023-07-24T06:53:49;2.47;;;2.03;;
37449;SDS011;23309;52.582;13.406;2023-07-24T06:56:14;3.53;;;2.40;;
37449;SDS011;23309;52.582;13.406;2023-07-24T06:58:40;3.00;;;2.20;;
37449;SDS011;23309;52.582;13.406;2023-07-24T07:01:06;3.30;;;2.70;;
37449;SDS011;23309;52.582;13.406;2023-07-24T07:03:31;2.50;;;2.10;;
37449;SDS011;23309;52.582;13.406;2023-07-24T07:05:59;2.67;;;2.10;;
37449;SDS011;23309;52.582;13.406;2023-07-24T07:08:25;5.20;;;2.70;;
37449;SDS011;23309;52.582;13.406;2023-07-24T07:10:55;6.10;;;2.10;;
37449;SDS011;23309;52.582;13.406;2023-07-24T07:13:24;5.97;;;2.70;;
37449;SDS011;23309;52.582;13.406;2023-07-24T07:15:50;2.57;;;2.03;;
37449;SDS011;23309;52.582;13.406;2023-07-24T07:18:15;2.47;;;2.23;;
37449;SDS011;23309;52.582;13.406;2023-07-24T07:20:44;4.07;;;2.40;;
37449;SDS011;23309;52.582;13.406;2023-07-24T07:23:14;2.40;;;1.80;;
37449;SDS011;23309;52.582;13.406;2023-07-24T07:25:39;4.13;;;2.17;;
37449;SDS011;23309;52.582;13.406;2023-07-24T07:28:05;4.60;;;2.20;;
37449;SDS011;23309;52.582;13.406;2023-07-24T07:30:30;3.47;;;2.40;;
37449;SDS011;23309;52.582;13.406;2023-07-24T07:32:56;4.83;;;2.37;;
37449;SDS011;23309;52.582;13.406;2023-07-24T07:35:22;4.20;;;2.47;;
37449;SDS011;23309;52.582;13.406;2023-07-24T07:37:47;3.00;;;2.17;;
37449;SDS011;23309;52.582;13.406;2023-07-24T07:40:13;2.97;;;2.17;;
37449;SDS011;23309;52.582;13.406;2023-07-24T07:42:38;3.30;;;2.30;;
37449;SDS011;23309;52.582;13.406;2023-07-24T07:45:04;3.43;;;2.43;;
37449;SDS011;23309;52.582;13.406;2023-07-24T07:47:30;2.70;;;2.13;;
37449;SDS011;23309;52.582;13.406;2023-07-24T07:49:55;2.73;;;2.23;;
37449;SDS011;23309;52.582;13.406;2023-07-24T07:52:21;6.00;;;2.40;;
37449;SDS011;23309;52.582;13.406;2023-07-24T07:54:47;3.03;;;2.30;;
37449;SDS011;23309;52.582;13.406;2023-07-24T07:57:13;4.80;;;2.23;;
37449;SDS011;23309;52.582;13.406;2023-07-24T07:59:39;3.10;;;2.17;;
37449;SDS011;23309;52.582;13.406;2023-07-24T08:02:05;2.70;;;2.40;;
37449;SDS011;23309;52.582;13.406;2023-07-24T08:04:31;2.37;;;2.10;;
37449;SDS011;23309;52.582;13.406;2023-07-24T08:06:56;2.40;;;1.93;;
37449;SDS011;23309;52.582;13.406;2023-07-24T08:09:23;2.33;;;2.00;;
37449;SDS011;23309;52.582;13.406;2023-07-24T08:11:49;3.37;;;2.03;;
37449;SDS011;23309;52.582;13.406;2023-07-24T08:14:16;3.03;;;2.33;;
37449;SDS011;23309;52.582;13.406;2023-07-24T08:16:42;3.00;;;2.30;;
37449;SDS011;23309;52.582;13.406;2023-07-24T08:19:07;2.20;;;1.87;;
37449;SDS011;23309;52.582;13.406;2023-07-24T08:21:33;2.70;;;2.30;;
37449;SDS011;23309;52.582;13.406;2023-07-24T08:23:58;3.27;;;2.27;;
37449;SDS011;23309;52.582;13.406;2023-07-24T08:26:25;2.23;;;2.00;;
37449;SDS011;23309;52.582;13.406;2023-07-24T08:28:51;2.60;;;2.20;;
37449;SDS011;23309;52.582;13.406;2023-07-24T08:31:17;3.63;;;2.47;;
37449;SDS011;23309;52.582;13.406;2023-07-24T08:33:42;2.40;;;2.17;;
37449;SDS011;23309;52.582;13.406;2023-07-24T08:36:08;3.53;;;2.10;;
37449;SDS011;23309;52.582;13.406;2023-07-24T08:38:36;2.80;;;2.30;;
37449;SDS011;23309;52.582;13.406;2023-07-24T08:41:06;2.97;;;2.30;;
37449;SDS011;23309;52.582;13.406;2023-07-24T08:43:34;2.73;;;2.10;;
37449;SDS011;23309;52.582;13.406;2023-07-24T08:46:01;3.30;;;2.60;;
37449;SDS011;23309;52.582;13.406;2023-07-24T08:48:29;4.63;;;2.67;;
37449;SDS011;23309;52.582;13.406;2023-07-24T08:50:56;3.30;;;2.13;;
37449;SDS011;23309;52.582;13.406;2023-07-24T08:53:22;2.63;;;2.10;;
37449;SDS011;23309;52.582;13.406;2023-07-24T08:55:48;2.50;;;2.10;;
37449;SDS011;23309;52.582;13.406;2023-07-24T08:58:16;4.40;;;2.73;;
37449;SDS011;23309;52.582;13.406;2023-07-24T09:00:42;3.50;;;2.37;;
37449;SDS011;23309;52.582;13.406;2023-07-24T09:03:08;3.17;;;2.47;;
37449;SDS011;23309;52.582;13.406;2023-07-24T09:05:34;3.20;;;2.60;;
37449;SDS011;23309;52.582;13.406;2023-07-24T09:07:59;3.93;;;2.57;;
37449;SDS011;23309;52.582;13.406;2023-07-24T09:10:25;2.97;;;2.30;;
37449;SDS011;23309;52.582;13.406;2023-07-24T09:12:51;3.60;;;2.13;;
37449;SDS011;23309;52.582;13.406;2023-07-24T09:15:16;3.03;;;2.40;;
37449;SDS011;23309;52.582;13.406;2023-07-24T09:17:49;3.07;;;2.30;;
37449;SDS011;23309;52.582;13.406;2023-07-24T09:20:18;3.57;;;2.57;;
37449;SDS011;23309;52.582;13.406;2023-07-24T09:22:48;2.33;;;2.00;;
37449;SDS011;23309;52.582;13.406;2023-07-24T09:25:15;2.20;;;2.00;;
37449;SDS011;23309;52.582;13.406;2023-07-24T09:27:40;3.00;;;2.40;;
37449;SDS011;23309;52.582;13.406;2023-07-24T09:30:15;2.90;;;2.10;;
37449;SDS011;23309;52.582;13.406;2023-07-24T09:32:42;4.03;;;2.27;;
37449;SDS011;23309;52.582;13.406;2023-07-24T09:35:17;2.53;;;2.23;;
37449;SDS011;23309;52.582;13.406;2023-07-24T09:37:43;3.17;;;2.27;;
37449;SDS011;23309;52.582;13.406;2023-07-24T09:40:09;2.63;;;2.33;;
37449;SDS011;23309;52.582;13.406;2023-07-24T09:42:36;3.37;;;2.40;;
37449;SDS011;23309;52.582;13.406;2023-07-24T09:45:03;3.80;;;2.30;;
37449;SDS011;23309;52.582;13.406;2023-07-24T09:47:29;3.20;;;2.60;;
37449;SDS011;23309;52.582;13.406;2023-07-24T09:49:55;2.53;;;2.00;;
37449;SDS011;23309;52.582;13.406;2023-07-24T09:52:21;3.93;;;2.60;;
37449;SDS011;23309;52.582;13.406;2023-07-24T09:55:10;3.70;;;2.73;;
37449;SDS011;23309;52.582;13.406;2023-07-24T09:57:35;4.00;;;2.60;;
37449;SDS011;23309;52.582;13.406;2023-07-24T10:00:01;4.53;;;2.50;;
37449;SDS011;23309;52.582;13.406;2023-07-24T10:02:27;2.77;;;2.33;;
37449;SDS011;23309;52.582;13.406;2023-07-24T10:04:54;2.73;;;2.47;;
37449;SDS011;23309;52.582;13.406;2023-07-24T10:07:20;3.60;;;2.77;;
37449;SDS011;23309;52.582;13.406;2023-07-24T10:09:47;3.07;;;2.70;;
37449;SDS011;23309;52.582;13.406;2023-07-24T10:12:15;3.57;;;2.80;;
37449;SDS011;23309;52.582;13.406;2023-07-24T10:14:42;5.37;;;2.53;;
37449;SDS011;23309;52.582;13.406;2023-07-24T10:17:09;2.60;;;2.40;;
37449;SDS011;23309;52.582;13.406;2023-07-24T10:19:35;3.50;;;2.90;;
37449;SDS011;23309;52.582;13.406;2023-07-24T10:22:08;3.93;;;3.17;;
37449;SDS011;23309;52.582;13.406;2023-07-24T10:24:35;3.23;;;2.50;;
37449;SDS011;23309;52.582;13.406;2023-07-24T10:27:02;2.90;;;2.43;;
37449;SDS011;23309;52.582;13.406;2023-07-24T10:29:28;5.67;;;2.90;;
37449;SDS011;23309;52.582;13.406;2023-07-24T10:31:54;3.73;;;2.50;;
37449;SDS011;23309;52.582;13.406;2023-07-24T10:34:20;3.90;;;2.30;;
37449;SDS011;23309;52.582;13.406;2023-07-24T10:36:45;4.67;;;2.90;;
37449;SDS011;23309;52.582;13.406;2023-07-24T10:39:15;6.63;;;3.20;;
37449;SDS011;23309;52.582;13.406;2023-07-24T10:41:42;3.33;;;2.83;;
37449;SDS011;23309;52.582;13.406;2023-07-24T10:44:10;3.47;;;3.00;;
37449;SDS011;23309;52.582;13.406;2023-07-24T10:46:36;4.97;;;3.17;;
37449;SDS011;23309;52.582;13.406;2023-07-24T10:49:02;4.20;;;3.43;;
37449;SDS011;23309;52.582;13.406;2023-07-24T10:51:31;11.80;;;3.77;;
37449;SDS011;23309;52.582;13.406;2023-07-24T10:53:59;7.03;;;3.57;;
37449;SDS011;23309;52.582;13.406;2023-07-24T10:56:25;5.07;;;3.57;;
37449;SDS011;23309;52.582;13.406;2023-07-24T10:58:50;4.10;;;3.47;;
37449;SDS011;23309;52.582;13.406;2023-07-24T11:01:17;4.93;;;3.40;;
37449;SDS011;23309;52.582;13.406;2023-07-24T11:03:43;4.23;;;3.60;;
37449;SDS011;23309;52.582;13.406;2023-07-24T11:06:19;5.20;;;3.63;;
37449;SDS011;23309;52.582;13.406;2023-07-24T11:08:55;8.20;;;3.60;;
37449;SDS011;23309;52.582;13.406;2023-07-24T11:11:22;4.13;;;3.40;;
37449;SDS011;23309;52.582;13.406;2023-07-24T11:13:57;5.30;;;3.93;;
37449;SDS011;23309;52.582;13.406;2023-07-24T11:16:23;5.27;;;4.03;;
37449;SDS011;23309;52.582;13.406;2023-07-24T11:18:49;6.07;;;4.00;;
37449;SDS011;23309;52.582;13.406;2023-07-24T11:21:16;9.17;;;3.70;;
37449;SDS011;23309;52.582;13.406;2023-07-24T11:23:46;5.90;;;4.57;;
37449;SDS011;23309;52.582;13.406;2023-07-24T11:26:18;6.33;;;4.30;;
37449;SDS011;23309;52.582;13.406;2023-07-24T11:28:45;12.43;;;4.37;;
37449;SDS011;23309;52.582;13.406;2023-07-24T11:31:12;6.33;;;4.20;;
37449;SDS011;23309;52.582;13.406;2023-07-24T11:33:37;8.13;;;4.83;;
37449;SDS011;23309;52.582;13.406;2023-07-24T11:36:03;11.17;;;3.93;;
37449;SDS011;23309;52.582;13.406;2023-07-24T11:38:29;5.27;;;4.20;;
37449;SDS011;23309;52.582;13.406;2023-07-24T11:40:55;5.83;;;4.03;;
37449;SDS011;23309;52.582;13.406;2023-07-24T11:43:21;6.27;;;4.30;;
37449;SDS011;23309;52.582;13.406;2023-07-24T11:45:48;5.20;;;3.87;;
37449;SDS011;23309;52.582;13.406;2023-07-24T11:48:18;6.60;;;4.10;;
37449;SDS011;23309;52.582;13.406;2023-07-24T11:50:48;5.40;;;3.90;;
37449;SDS011;23309;52.582;13.406;2023-07-24T11:53:19;6.30;;;4.40;;
37449;SDS011;23309;52.582;13.406;2023-07-24T11:55:52;5.60;;;4.23;;
37449;SDS011;23309;52.582;13.406;2023-07-24T11:58:19;5.90;;;4.37;;
37449;SDS011;23309;52.582;13.406;2023-07-24T12:00:46;6.37;;;4.67;;
37449;SDS011;23309;52.582;13.406;2023-07-24T12:03:12;5.50;;;4.20;;
37449;SDS011;23309;52.582;13.406;2023-07-24T12:05:43;6.20;;;4.60;;
37449;SDS011;23309;52.582;13.406;2023-07-24T12:08:09;6.57;;;4.30;;
37449;SDS011;23309;52.582;13.406;2023-07-24T12:10:38;5.60;;;4.40;;
37449;SDS011;23309;52.582;13.406;2023-07-24T12:13:04;9.17;;;4.93;;
37449;SDS011;23309;52.582;13.406;2023-07-24T12:15:30;7.10;;;4.73;;
37449;SDS011;23309;52.582;13.406;2023-07-24T12:17:57;6.63;;;4.93;;
37449;SDS011;23309;52.582;13.406;2023-07-24T12:20:23;6.50;;;4.67;;
37449;SDS011;23309;52.582;13.406;2023-07-24T12:22:49;8.47;;;4.23;;
37449;SDS011;23309;52.582;13.406;2023-07-24T12:25:14;7.53;;;4.60;;
37449;SDS011;23309;52.582;13.406;2023-07-24T12:27:40;8.07;;;4.27;;
37449;SDS011;23309;52.582;13.406;2023-07-24T12:30:07;13.30;;;5.10;;
37449;SDS011;23309;52.582;13.406;2023-07-24T12:32:33;7.70;;;4.60;;
37449;SDS011;23309;52.582;13.406;2023-07-24T12:34:58;10.87;;;5.07;;
37449;SDS011;23309;52.582;13.406;2023-07-24T12:37:24;7.10;;;4.53;;
37449;SDS011;23309;52.582;13.406;2023-07-24T12:39:50;7.10;;;4.73;;
37449;SDS011;23309;52.582;13.406;2023-07-24T12:42:15;7.07;;;5.03;;
37449;SDS011;23309;52.582;13.406;2023-07-24T12:44:41;10.23;;;4.53;;
37449;SDS011;23309;52.582;13.406;2023-07-24T12:47:08;7.33;;;4.00;;
37449;SDS011;23309;52.582;13.406;2023-07-24T12:49:33;5.40;;;4.60;;
37449;SDS011;23309;52.582;13.406;2023-07-24T12:51:59;8.53;;;5.00;;
37449;SDS011;23309;52.582;13.406;2023-07-24T12:54:24;7.30;;;4.47;;
37449;SDS011;23309;52.582;13.406;2023-07-24T12:56:50;6.80;;;4.43;;
37449;SDS011;23309;52.582;13.406;2023-07-24T12:59:19;5.50;;;3.90;;
37449;SDS011;23309;52.582;13.406;2023-07-24T13:01:45;7.53;;;4.10;;
37449;SDS011;23309;52.582;13.406;2023-07-24T13:04:11;4.90;;;4.10;;
37449;SDS011;23309;52.582;13.406;2023-07-24T13:06:36;9.70;;;4.50;;
37449;SDS011;23309;52.582;13.406;2023-07-24T13:09:02;4.97;;;3.80;;
37449;SDS011;23309;52.582;13.406;2023-07-24T13:11:28;6.77;;;4.33;;
37449;SDS011;23309;52.582;13.406;2023-07-24T13:13:54;6.93;;;4.20;;
37449;SDS011;23309;52.582;13.406;2023-07-24T13:16:20;8.67;;;4.80;;
37449;SDS011;23309;52.582;13.406;2023-07-24T13:18:46;6.37;;;3.80;;
37449;SDS011;23309;52.582;13.406;2023-07-24T13:21:11;4.93;;;3.60;;
37449;SDS011;23309;52.582;13.406;2023-07-24T13:23:38;7.77;;;3.73;;
37449;SDS011;23309;52.582;13.406;2023-07-24T13:26:04;7.63;;;4.23;;
37449;SDS011;23309;52.582;13.406;2023-07-24T13:28:30;7.10;;;4.50;;
37449;SDS011;23309;52.582;13.406;2023-07-24T13:30:55;6.47;;;3.63;;
37449;SDS011;23309;52.582;13.406;2023-07-24T13:33:21;5.93;;;3.80;;
37449;SDS011;23309;52.582;13.406;2023-07-24T13:35:47;4.77;;;3.70;;
37449;SDS011;23309;52.582;13.406;2023-07-24T13:38:13;6.00;;;3.57;;
37449;SDS011;23309;52.582;13.406;2023-07-24T13:40:39;6.57;;;3.70;;
37449;SDS011;23309;52.582;13.406;2023-07-24T13:43:05;6.50;;;3.43;;
37449;SDS011;23309;52.582;13.406;2023-07-24T13:45:30;6.13;;;3.63;;
37449;SDS011;23309;52.582;13.406;2023-07-24T13:47:56;5.30;;;3.40;;
37449;SDS011;23309;52.582;13.406;2023-07-24T13:50:22;4.63;;;3.70;;
37449;SDS011;23309;52.582;13.406;2023-07-24T13:52:47;3.80;;;3.20;;
37449;SDS011;23309;52.582;13.406;2023-07-24T13:55:13;5.97;;;3.50;;
37449;SDS011;23309;52.582;13.406;2023-07-24T13:57:39;6.80;;;3.27;;
37449;SDS011;23309;52.582;13.406;2023-07-24T14:00:05;7.40;;;3.23;;
37449;SDS011;23309;52.582;13.406;2023-07-24T14:02:31;5.30;;;3.67;;
37449;SDS011;23309;52.582;13.406;2023-07-24T14:04:56;5.30;;;3.33;;
37449;SDS011;23309;52.582;13.406;2023-07-24T14:07:22;7.17;;;3.90;;
37449;SDS011;23309;52.582;13.406;2023-07-24T14:09:47;4.70;;;3.50;;
37449;SDS011;23309;52.582;13.406;2023-07-24T14:12:13;5.93;;;3.40;;
37449;SDS011;23309;52.582;13.406;2023-07-24T14:14:38;5.30;;;3.83;;
37449;SDS011;23309;52.582;13.406;2023-07-24T14:17:04;6.13;;;3.70;;
37449;SDS011;23309;52.582;13.406;2023-07-24T14:19:29;7.63;;;3.70;;
37449;SDS011;23309;52.582;13.406;2023-07-24T14:21:55;5.20;;;3.63;;
37449;SDS011;23309;52.582;13.406;2023-07-24T14:24:21;5.90;;;3.57;;
37449;SDS011;23309;52.582;13.406;2023-07-24T14:26:46;5.07;;;3.80;;
37449;SDS011;23309;52.582;13.406;2023-07-24T14:29:13;6.17;;;3.70;;
37449;SDS011;23309;52.582;13.406;2023-07-24T14:31:42;9.10;;;4.30;;